createdAt,value
2022-08-17T00:01:40.007Z,28.58
2022-08-17T00:04:20.492Z,28.58
2022-08-17T00:06:49.451Z,28.55
2022-08-17T00:09:18.519Z,28.57
2022-08-17T00:12:41.040Z,28.56
2022-08-17T00:14:34.313Z,28.57
2022-08-17T00:17:01.417Z,28.56
2022-08-17T00:19:28.513Z,28.56
2022-08-17T00:22:31.938Z,28.58
2022-08-17T00:24:44.863Z,28.53
2022-08-17T00:27:12.025Z,28.49
2022-08-17T00:29:38.990Z,28.46
2022-08-17T00:33:13.920Z,28.46
2022-08-17T00:34:53.162Z,28.15
2022-08-17T00:37:20.089Z,28.22
2022-08-17T00:39:47.096Z,28.27
2022-08-17T00:42:15.434Z,28.23
2022-08-17T00:44:42.467Z,28.26
2022-08-17T00:47:09.481Z,28.31
2022-08-17T00:49:36.531Z,28.26
2022-08-17T00:52:11.670Z,28.23
2022-08-17T00:54:42.320Z,28.24
2022-08-17T00:57:09.529Z,28.24
2022-08-17T00:59:41.853Z,28.21
2022-08-17T01:02:09.801Z,28.17
2022-08-17T01:04:37.619Z,28.20
2022-08-17T01:07:05.474Z,28.12
2022-08-17T01:09:33.054Z,28.15
2022-08-17T01:12:00.263Z,28.18
2022-08-17T01:14:27.428Z,28.17
2022-08-17T01:16:55.286Z,28.16
2022-08-17T01:19:23.787Z,28.12
2022-08-17T01:21:55.712Z,28.05
2022-08-17T01:24:22.951Z,28.10
2022-08-17T01:26:50.257Z,28.13
2022-08-17T01:29:18.897Z,28.17
2022-08-17T01:31:48.785Z,28.16
2022-08-17T01:34:16.943Z,28.17
2022-08-17T01:36:46.601Z,28.06
2022-08-17T01:39:34.518Z,27.97
2022-08-17T01:42:05.912Z,28.03
2022-08-17T01:44:33.122Z,27.92
2022-08-17T01:47:00.250Z,27.93
2022-08-17T01:49:28.052Z,27.94
2022-08-17T01:51:55.273Z,27.95
2022-08-17T01:54:23.251Z,27.98
2022-08-17T01:56:51.608Z,27.67
2022-08-17T01:59:20.031Z,27.52
2022-08-17T02:01:47.353Z,27.53
2022-08-17T02:04:14.906Z,27.47
2022-08-17T02:06:47.028Z,27.34
2022-08-17T02:09:29.571Z,27.49
2022-08-17T02:11:58.359Z,27.37
2022-08-17T02:14:25.538Z,27.38
2022-08-17T02:16:53.174Z,27.39
2022-08-17T02:19:20.488Z,27.35
2022-08-17T02:21:48.617Z,27.29
2022-08-17T02:25:00.720Z,27.25
2022-08-17T02:27:07.829Z,27.19
2022-08-17T02:29:34.761Z,27.23
2022-08-17T02:32:02.004Z,27.33
2022-08-17T02:34:30.098Z,27.44
2022-08-17T02:36:57.233Z,27.48
2022-08-17T02:39:24.275Z,27.53
2022-08-17T02:41:59.943Z,27.55
2022-08-17T02:44:35.388Z,27.56
2022-08-17T02:47:08.091Z,27.53
2022-08-17T02:49:35.154Z,27.42
2022-08-17T02:52:06.785Z,27.25
2022-08-17T02:54:39.018Z,27.22
2022-08-17T02:57:09.588Z,27.34
2022-08-17T02:59:37.245Z,27.43
2022-08-17T03:02:04.988Z,27.50
2022-08-17T03:04:35.186Z,27.57
2022-08-17T03:07:03.132Z,27.61
2022-08-17T03:09:30.216Z,27.59
2022-08-17T03:12:07.568Z,27.46
2022-08-17T03:14:41.104Z,27.39
2022-08-17T03:17:10.039Z,27.42
2022-08-17T03:19:39.644Z,27.49
2022-08-17T03:22:35.426Z,27.54
2022-08-17T03:24:57.372Z,27.53
2022-08-17T03:27:24.336Z,27.56
2022-08-17T03:29:51.283Z,27.60
2022-08-17T03:32:20.756Z,27.61
2022-08-17T03:34:48.159Z,27.66
2022-08-17T03:37:15.191Z,27.67
2022-08-17T03:39:42.975Z,27.67
2022-08-17T03:42:31.317Z,27.65
2022-08-17T03:45:00.435Z,27.67
2022-08-17T03:47:46.264Z,27.67
2022-08-17T03:50:32.813Z,27.62
2022-08-17T03:53:18.940Z,27.67
2022-08-17T03:56:04.600Z,27.64
2022-08-17T03:58:31.813Z,27.62
2022-08-17T04:00:59.906Z,27.67
2022-08-17T04:03:27.033Z,27.66
2022-08-17T04:05:54.036Z,27.55
2022-08-17T04:08:21.141Z,27.47
2022-08-17T04:10:48.251Z,27.47
2022-08-17T04:13:15.443Z,27.43
2022-08-17T04:15:51.188Z,27.33
2022-08-17T04:18:18.283Z,27.46
2022-08-17T04:20:45.914Z,27.25
2022-08-17T04:23:15.473Z,27.09
2022-08-17T04:25:44.056Z,27.10
2022-08-17T04:28:15.868Z,27.18
2022-08-17T04:30:45.342Z,27.28
2022-08-17T04:33:14.303Z,27.36
2022-08-17T04:35:42.825Z,27.32
2022-08-17T04:38:12.072Z,27.36
2022-08-17T04:40:58.247Z,27.40
2022-08-17T04:43:26.380Z,27.35
2022-08-17T04:45:56.691Z,27.41
2022-08-17T04:48:35.368Z,27.42
2022-08-17T04:51:03.461Z,27.44
2022-08-17T04:53:30.503Z,27.32
2022-08-17T04:55:59.148Z,27.37
2022-08-17T04:58:26.224Z,27.32
2022-08-17T05:00:53.247Z,27.27
2022-08-17T05:03:20.345Z,27.27
2022-08-17T05:05:50.175Z,27.37
2022-08-17T05:08:18.728Z,27.34
2022-08-17T05:10:46.348Z,27.41
2022-08-17T05:13:17.697Z,27.33
2022-08-17T05:15:47.607Z,27.44
2022-08-17T05:18:15.740Z,27.27
2022-08-17T05:20:43.423Z,27.31
2022-08-17T05:23:12.387Z,27.33
2022-08-17T05:25:40.908Z,27.07
2022-08-17T05:28:09.060Z,27.17
2022-08-17T05:30:38.178Z,27.14
2022-08-17T05:33:07.491Z,27.14
2022-08-17T05:35:36.376Z,27.17
2022-08-17T05:38:04.060Z,27.21
2022-08-17T05:40:32.631Z,27.27
2022-08-17T05:43:14.093Z,27.18
2022-08-17T05:45:55.279Z,27.12
2022-08-17T05:48:35.399Z,27.23
2022-08-17T05:51:25.512Z,27.28
2022-08-17T05:53:52.517Z,27.28
2022-08-17T05:56:37.735Z,27.35
2022-08-17T05:59:13.753Z,27.42
2022-08-17T06:01:59.072Z,27.51
2022-08-17T06:04:50.200Z,27.52
2022-08-17T06:07:29.520Z,27.48
2022-08-17T06:09:56.425Z,27.55
2022-08-17T06:12:46.775Z,27.52
2022-08-17T06:15:32.188Z,27.59
2022-08-17T06:18:01.118Z,27.64
2022-08-17T06:22:44.721Z,27.81
2022-08-17T06:25:14.612Z,27.85
2022-08-17T06:27:45.390Z,27.89
2022-08-17T06:30:12.302Z,27.91
2022-08-17T06:32:42.646Z,27.99
2022-08-17T06:35:11.619Z,28.01
2022-08-17T06:37:39.317Z,28.13
2022-08-17T06:40:12.477Z,28.21
2022-08-17T06:43:02.780Z,28.27
2022-08-17T06:45:42.515Z,28.24
2022-08-17T06:48:13.289Z,28.33
2022-08-17T06:50:44.318Z,28.41
2022-08-17T06:53:21.216Z,28.50
2022-08-17T06:56:00.468Z,28.46
2022-08-17T06:58:31.615Z,28.53
2022-08-17T07:01:04.924Z,28.64
2022-08-17T07:03:38.844Z,28.65
2022-08-17T07:06:08.637Z,28.72
2022-08-17T07:08:51.027Z,28.75
2022-08-17T07:11:26.422Z,28.82
2022-08-17T07:14:16.990Z,28.93
2022-08-17T07:16:47.186Z,29.00
2022-08-17T07:19:16.023Z,29.06
2022-08-17T07:21:43.024Z,29.16
2022-08-17T07:24:26.061Z,29.20
2022-08-17T07:27:04.739Z,29.29
2022-08-17T07:29:33.249Z,29.40
2022-08-17T07:32:00.297Z,29.51
2022-08-17T07:34:27.373Z,29.53
2022-08-17T07:37:05.223Z,29.62
2022-08-17T07:39:32.264Z,29.74
2022-08-17T07:42:03.597Z,29.91
2022-08-17T07:44:30.626Z,29.84
2022-08-17T07:47:16.340Z,29.90
2022-08-17T07:49:47.513Z,29.91
2022-08-17T07:52:50.966Z,29.91
2022-08-17T07:55:40.496Z,29.98
2022-08-17T07:58:07.560Z,30.06
2022-08-17T08:00:34.581Z,30.09
2022-08-17T08:03:04.460Z,30.18
2022-08-17T08:05:50.029Z,30.22
2022-08-17T08:08:33.851Z,30.18
2022-08-17T08:11:09.303Z,30.29
2022-08-17T08:13:42.456Z,30.45
2022-08-17T08:16:21.592Z,30.53
2022-08-17T08:18:55.392Z,30.61
2022-08-17T08:21:52.950Z,30.72
2022-08-17T08:24:38.650Z,30.85
2022-08-17T08:27:28.915Z,31.00
2022-08-17T08:30:06.220Z,31.03
2022-08-17T08:32:50.404Z,31.23
2022-08-17T08:35:23.359Z,31.32
2022-08-17T08:37:50.483Z,31.30
2022-08-17T08:40:36.459Z,31.26
2022-08-17T08:43:12.716Z,31.19
2022-08-17T08:46:06.007Z,31.29
2022-08-17T08:48:56.641Z,31.32
2022-08-17T08:51:46.316Z,31.28
2022-08-17T08:54:26.435Z,31.32
2022-08-17T08:57:24.356Z,31.35
2022-08-17T08:59:57.860Z,31.57
2022-08-17T09:02:25.384Z,31.54
2022-08-17T09:05:14.460Z,31.59
2022-08-17T09:07:51.038Z,31.63
2022-08-17T09:10:31.080Z,31.79
2022-08-17T09:13:22.162Z,31.90
2022-08-17T09:15:59.061Z,31.92
2022-08-17T09:19:00.039Z,32.00
2022-08-17T09:21:23.975Z,32.01
2022-08-17T09:23:59.680Z,32.10
2022-08-17T09:26:31.484Z,32.10
2022-08-17T09:29:01.649Z,32.13
2022-08-17T09:31:48.922Z,32.06
2022-08-17T09:34:19.967Z,32.30
2022-08-17T09:37:00.743Z,32.45
2022-08-17T09:39:36.450Z,32.57
2022-08-17T09:42:12.557Z,32.52
2022-08-17T09:44:58.401Z,32.41
2022-08-17T09:47:32.227Z,32.37
2022-08-17T09:50:20.282Z,32.37
2022-08-17T09:53:07.349Z,32.50
2022-08-17T09:55:49.629Z,32.67
2022-08-17T09:58:34.842Z,32.77
2022-08-17T10:01:06.838Z,32.94
2022-08-17T10:03:43.041Z,33.07
2022-08-17T10:06:13.453Z,33.24
2022-08-17T10:08:57.622Z,33.27
2022-08-17T10:12:04.660Z,33.24
2022-08-17T10:14:53.351Z,33.22
2022-08-17T10:17:21.207Z,33.31
2022-08-17T10:20:03.239Z,33.29
2022-08-17T10:22:55.311Z,33.17
2022-08-17T10:25:54.551Z,33.21
2022-08-17T10:28:28.804Z,33.24
2022-08-17T10:31:23.229Z,33.44
2022-08-17T10:34:19.240Z,33.54
2022-08-17T10:36:47.468Z,33.49
2022-08-17T10:39:20.409Z,33.59
2022-08-17T10:41:50.569Z,33.67
2022-08-17T10:44:39.517Z,33.58
2022-08-17T10:47:11.466Z,33.55
2022-08-17T10:49:39.521Z,33.61
2022-08-17T10:52:26.410Z,33.69
2022-08-17T10:55:02.327Z,33.69
2022-08-17T10:57:29.342Z,33.56
2022-08-17T10:59:57.543Z,33.51
2022-08-17T11:02:27.527Z,33.56
2022-08-17T11:05:00.659Z,33.72
2022-08-17T11:07:30.844Z,33.97
2022-08-17T11:10:09.139Z,33.97
2022-08-17T11:12:45.515Z,33.93
2022-08-17T11:15:15.957Z,34.03
2022-08-17T11:17:55.552Z,34.12
2022-08-17T11:20:38.133Z,34.19
2022-08-17T11:23:24.701Z,33.97
2022-08-17T11:25:58.859Z,34.14
2022-08-17T11:28:28.295Z,34.14
2022-08-17T11:30:57.886Z,34.11
2022-08-17T11:33:36.924Z,34.21
2022-08-17T11:36:23.904Z,34.31
2022-08-17T11:38:50.836Z,34.48
2022-08-17T11:41:27.850Z,34.58
2022-08-17T11:44:17.049Z,34.54
2022-08-17T11:47:16.421Z,34.45
2022-08-17T11:50:02.065Z,34.53
2022-08-17T11:52:46.767Z,34.46
2022-08-17T11:55:38.546Z,34.39
2022-08-17T11:58:26.341Z,34.55
2022-08-17T12:00:57.846Z,34.67
2022-08-17T12:03:31.926Z,34.55
2022-08-17T12:06:11.319Z,34.56
2022-08-17T12:08:43.450Z,34.60
2022-08-17T12:11:12.035Z,34.51
2022-08-17T12:13:44.746Z,34.54
2022-08-17T12:16:19.096Z,34.65
2022-08-17T12:19:05.267Z,34.82
2022-08-17T12:21:38.324Z,34.96
2022-08-17T12:24:14.466Z,35.09
2022-08-17T12:26:44.198Z,35.10
2022-08-17T12:29:18.504Z,35.13
2022-08-17T12:32:04.263Z,35.27
2022-08-17T12:34:36.622Z,35.30
2022-08-17T12:37:08.521Z,35.16
2022-08-17T12:39:35.681Z,35.01
2022-08-17T12:42:04.011Z,35.04
2022-08-17T12:44:35.570Z,35.11
2022-08-17T12:47:07.685Z,35.17
2022-08-17T12:49:36.442Z,35.13
2022-08-17T12:52:14.264Z,35.23
2022-08-17T12:54:44.201Z,35.18
2022-08-17T12:57:16.985Z,35.21
2022-08-17T12:59:46.336Z,35.34
2022-08-17T13:02:19.607Z,35.47
2022-08-17T13:04:46.866Z,35.39
2022-08-17T13:07:26.112Z,35.38
2022-08-17T13:09:53.221Z,35.30
2022-08-17T13:12:26.202Z,35.39
2022-08-17T13:14:53.352Z,35.41
2022-08-17T13:17:32.276Z,35.36
2022-08-17T13:19:59.614Z,35.28
2022-08-17T13:22:28.005Z,35.27
2022-08-17T13:24:57.815Z,35.24
2022-08-17T13:27:26.363Z,35.29
2022-08-17T13:29:55.556Z,35.42
2022-08-17T13:32:34.418Z,35.45
2022-08-17T13:35:15.226Z,35.49
2022-08-17T13:38:02.308Z,35.18
2022-08-17T13:40:31.372Z,35.23
2022-08-17T13:42:58.539Z,35.44
2022-08-17T13:45:34.741Z,35.57
2022-08-17T13:48:13.752Z,35.73
2022-08-17T13:50:41.298Z,35.78
2022-08-17T13:53:28.713Z,35.85
2022-08-17T13:56:07.454Z,35.72
2022-08-17T13:58:54.499Z,35.67
2022-08-17T14:01:53.615Z,35.65
2022-08-17T14:04:22.922Z,35.73
2022-08-17T14:06:54.101Z,35.82
2022-08-17T14:09:24.527Z,35.81
2022-08-17T14:11:51.803Z,35.59
2022-08-17T14:14:18.850Z,35.70
2022-08-17T14:16:45.896Z,35.90
2022-08-17T14:19:14.104Z,35.93
2022-08-17T14:21:43.117Z,35.89
2022-08-17T14:24:16.937Z,35.59
2022-08-17T14:26:45.029Z,35.39
2022-08-17T14:29:12.669Z,35.35
2022-08-17T14:31:42.692Z,35.50
2022-08-17T14:34:18.368Z,35.47
2022-08-17T14:36:48.641Z,35.44
2022-08-17T14:39:17.338Z,35.40
2022-08-17T14:41:44.454Z,35.55
2022-08-17T14:44:12.692Z,35.72
2022-08-17T14:46:40.983Z,35.59
2022-08-17T14:49:08.980Z,35.36
2022-08-17T14:51:43.492Z,35.40
2022-08-17T14:54:25.654Z,35.25
2022-08-17T14:57:23.301Z,35.34
2022-08-17T14:59:47.513Z,35.46
2022-08-17T15:02:17.710Z,35.24
2022-08-17T15:04:47.777Z,35.30
2022-08-17T15:07:15.362Z,35.32
2022-08-17T15:09:42.521Z,35.22
2022-08-17T15:12:16.960Z,35.29
2022-08-17T15:14:44.067Z,35.16
2022-08-17T15:17:11.790Z,35.15
2022-08-17T15:19:38.761Z,35.19
2022-08-17T15:22:06.894Z,35.08
2022-08-17T15:24:33.874Z,35.21
2022-08-17T15:27:01.041Z,35.39
2022-08-17T15:29:29.014Z,35.47
2022-08-17T15:32:00.453Z,35.47
2022-08-17T15:34:27.988Z,35.34
2022-08-17T15:36:54.992Z,35.35
2022-08-17T15:39:22.251Z,35.30
2022-08-17T15:41:58.692Z,35.19
2022-08-17T15:44:30.202Z,35.25
2022-08-17T15:46:59.848Z,35.09
2022-08-17T15:49:27.709Z,35.12
2022-08-17T15:51:54.692Z,35.03
2022-08-17T15:54:22.418Z,34.98
2022-08-17T15:56:50.046Z,34.97
2022-08-17T15:59:16.988Z,34.88
2022-08-17T16:03:15.264Z,34.78
2022-08-17T16:04:31.798Z,34.77
2022-08-17T16:07:00.046Z,34.68
2022-08-17T16:09:27.632Z,34.76
2022-08-17T16:11:56.344Z,34.67
2022-08-17T16:14:24.685Z,34.64
2022-08-17T16:16:59.481Z,34.59
2022-08-17T16:19:26.634Z,34.59
2022-08-17T16:21:53.610Z,34.66
2022-08-17T16:24:20.569Z,34.59
2022-08-17T16:26:47.717Z,34.53
2022-08-17T16:29:14.686Z,34.45
2022-08-17T16:31:42.524Z,34.45
2022-08-17T16:34:17.353Z,34.36
2022-08-17T16:36:54.675Z,34.30
2022-08-17T16:39:23.983Z,34.15
2022-08-17T16:41:50.977Z,34.11
2022-08-17T16:44:20.178Z,34.08
2022-08-17T16:46:48.304Z,33.97
2022-08-17T16:49:36.325Z,33.84
2022-08-17T16:52:04.442Z,33.78
2022-08-17T16:54:31.449Z,33.78
2022-08-17T16:56:58.547Z,33.55
2022-08-17T16:59:30.253Z,33.58
2022-08-17T17:02:04.842Z,33.55
2022-08-17T17:04:35.075Z,33.55
2022-08-17T17:07:25.801Z,33.51
2022-08-17T17:09:55.570Z,33.39
2022-08-17T17:13:00.824Z,33.44
2022-08-17T17:15:10.896Z,33.31
2022-08-17T17:17:39.147Z,33.38
2022-08-17T17:20:15.940Z,33.23
2022-08-17T17:22:48.201Z,33.29
2022-08-17T17:25:24.971Z,33.31
2022-08-17T17:27:56.721Z,33.30
2022-08-17T17:30:27.167Z,33.36
2022-08-17T17:33:11.210Z,33.25
2022-08-17T17:35:53.377Z,33.25
2022-08-17T17:38:31.477Z,33.23
2022-08-17T17:41:04.647Z,33.30
2022-08-17T17:43:39.831Z,33.35
2022-08-17T17:46:27.652Z,33.38
2022-08-17T17:48:56.866Z,33.39
2022-08-17T17:52:05.927Z,33.37
2022-08-17T17:54:32.639Z,33.23
2022-08-17T17:57:07.491Z,33.14
2022-08-17T17:59:47.731Z,33.10
2022-08-17T18:02:37.746Z,33.08
2022-08-17T18:05:12.517Z,33.02
2022-08-17T18:07:46.628Z,32.97
2022-08-17T18:10:44.996Z,32.94
2022-08-17T18:13:28.117Z,32.91
2022-08-17T18:15:56.336Z,32.86
2022-08-17T18:18:31.144Z,32.82
2022-08-17T18:21:05.608Z,32.76
2022-08-17T18:23:33.255Z,32.62
2022-08-17T18:26:02.105Z,32.60
2022-08-17T18:28:32.284Z,32.57
2022-08-17T18:31:05.561Z,32.51
2022-08-17T18:33:32.579Z,32.38
2022-08-17T18:36:01.521Z,32.28
2022-08-17T18:38:36.142Z,32.21
2022-08-17T18:41:03.123Z,32.08
2022-08-17T18:43:44.137Z,31.94
2022-08-17T18:46:28.331Z,31.89
2022-08-17T18:48:58.996Z,31.87
2022-08-17T18:51:41.679Z,31.80
2022-08-17T18:54:24.344Z,31.73
2022-08-17T18:56:51.461Z,31.61
2022-08-17T18:59:38.318Z,31.57
2022-08-17T19:05:13.656Z,31.54
2022-08-17T19:07:42.462Z,31.57
2022-08-17T19:10:24.289Z,31.57
2022-08-17T19:12:51.430Z,31.57
2022-08-17T19:15:23.255Z,31.57
2022-08-17T19:17:50.359Z,31.50
2022-08-17T19:20:20.555Z,31.42
2022-08-17T19:22:57.437Z,31.39
2022-08-17T19:25:30.753Z,31.40
2022-08-17T19:28:03.225Z,31.37
2022-08-17T19:30:30.683Z,31.37
2022-08-17T19:32:58.531Z,31.34
2022-08-17T19:35:30.781Z,31.32
2022-08-17T19:37:58.390Z,31.18
2022-08-17T19:40:52.376Z,31.11
2022-08-17T19:43:30.646Z,31.12
2022-08-17T19:46:06.101Z,31.07
2022-08-17T19:48:45.705Z,31.10
2022-08-17T19:51:24.329Z,31.15
2022-08-17T19:54:05.890Z,31.05
2022-08-17T19:56:33.580Z,30.86
2022-08-17T19:59:03.552Z,30.87
2022-08-17T20:01:37.126Z,30.85
2022-08-17T20:04:11.134Z,30.78
2022-08-17T20:06:40.556Z,30.70
2022-08-17T20:09:15.003Z,30.69
2022-08-17T20:11:47.904Z,30.70
2022-08-17T20:14:20.821Z,30.68
2022-08-17T20:16:47.888Z,30.63
2022-08-17T20:19:29.499Z,30.62
2022-08-17T20:22:01.480Z,30.60
2022-08-17T20:24:52.896Z,30.62
2022-08-17T20:27:21.956Z,30.60
2022-08-17T20:30:04.857Z,30.56
2022-08-17T20:32:35.386Z,30.58
2022-08-17T20:35:07.256Z,30.58
2022-08-17T20:37:35.378Z,30.58
2022-08-17T20:40:06.454Z,30.59
2022-08-17T20:42:34.282Z,30.58
2022-08-17T20:45:20.149Z,30.60
2022-08-17T20:48:18.527Z,30.61
2022-08-17T20:50:43.708Z,30.63
2022-08-17T20:53:13.681Z,30.63
2022-08-17T20:55:51.843Z,30.61
2022-08-17T20:58:21.280Z,30.60
2022-08-17T21:00:50.251Z,30.57
2022-08-17T21:03:23.157Z,30.60
2022-08-17T21:06:00.262Z,30.58
2022-08-17T21:08:28.623Z,30.54
2022-08-17T21:10:56.582Z,30.54
2022-08-17T21:13:29.835Z,30.46
2022-08-17T21:16:16.662Z,30.50
2022-08-17T21:19:00.251Z,30.48
2022-08-17T21:21:39.767Z,30.45
2022-08-17T21:24:25.363Z,30.44
2022-08-17T21:27:27.957Z,30.44
2022-08-17T21:30:09.020Z,30.39
2022-08-17T21:32:40.448Z,30.36
2022-08-17T21:35:23.888Z,30.39
2022-08-17T21:37:54.180Z,30.38
2022-08-17T21:40:26.294Z,30.32
2022-08-17T21:42:55.583Z,30.31
2022-08-17T21:45:36.583Z,30.25
2022-08-17T21:48:07.009Z,30.25
2022-08-17T21:50:35.601Z,30.19
2022-08-17T21:53:04.011Z,30.19
2022-08-17T21:55:32.601Z,30.21
2022-08-17T21:58:13.800Z,30.12
2022-08-17T22:00:44.641Z,29.96
2022-08-17T22:03:22.629Z,29.95
2022-08-17T22:05:51.578Z,29.88
2022-08-17T22:08:20.415Z,29.80
2022-08-17T22:10:51.254Z,29.73
2022-08-17T22:13:18.253Z,29.76
2022-08-17T22:15:48.858Z,29.78
2022-08-17T22:18:26.997Z,29.80
2022-08-17T22:20:56.460Z,29.82
2022-08-17T22:23:45.292Z,29.79
2022-08-17T22:26:13.814Z,29.78
2022-08-17T22:28:52.377Z,29.76
2022-08-17T22:31:24.712Z,29.65
2022-08-17T22:34:11.972Z,29.67
2022-08-17T22:36:40.494Z,29.55
2022-08-17T22:39:10.473Z,29.58
2022-08-17T22:41:53.325Z,29.63
2022-08-17T22:44:31.889Z,29.65
2022-08-17T22:46:59.069Z,29.63
2022-08-17T22:49:29.337Z,29.62
2022-08-17T22:52:01.128Z,29.65
2022-08-17T22:54:47.425Z,29.66
2022-08-17T22:57:33.921Z,29.49
2022-08-17T23:00:01.009Z,29.51
2022-08-17T23:02:29.725Z,29.54
2022-08-17T23:05:13.123Z,29.58
2022-08-17T23:07:42.438Z,29.65
2022-08-17T23:10:14.207Z,29.62
2022-08-17T23:12:41.196Z,29.56
2022-08-17T23:15:14.392Z,29.58
2022-08-17T23:17:42.063Z,29.59
2022-08-17T23:20:12.211Z,29.62
2022-08-17T23:22:51.537Z,29.63
2022-08-17T23:25:25.025Z,29.66
2022-08-17T23:27:52.049Z,29.68
2022-08-17T23:30:19.449Z,29.59
2022-08-17T23:32:53.700Z,29.53
2022-08-17T23:35:40.223Z,29.52
2022-08-17T23:38:12.532Z,29.52
2022-08-17T23:40:40.056Z,29.55
2022-08-17T23:43:23.323Z,29.53
2022-08-17T23:45:52.981Z,29.49
2022-08-17T23:48:34.987Z,29.50
2022-08-17T23:51:19.102Z,29.51
2022-08-17T23:53:49.269Z,29.50
2022-08-17T23:56:17.981Z,29.46
2022-08-17T23:58:45.455Z,29.45
